createdAt,value
2018-11-28T00:00:03.674Z,0.00
2018-11-28T00:01:03.645Z,0.00
2018-11-28T00:02:03.615Z,0.00
2018-11-28T00:03:03.585Z,0.00
2018-11-28T00:04:03.558Z,0.00
2018-11-28T00:05:03.530Z,0.00
2018-11-28T00:06:03.499Z,0.00
2018-11-28T00:07:03.476Z,0.00
2018-11-28T00:08:03.446Z,0.00
2018-11-28T00:09:03.417Z,0.00
2018-11-28T00:10:03.389Z,0.00
2018-11-28T00:11:03.357Z,0.00
2018-11-28T00:12:03.329Z,0.00
2018-11-28T00:13:03.301Z,0.00
2018-11-28T00:14:03.275Z,0.00
2018-11-28T00:15:03.245Z,0.00
2018-11-28T00:16:03.215Z,0.00
2018-11-28T00:17:03.186Z,0.00
2018-11-28T00:18:03.158Z,0.00
2018-11-28T00:19:03.129Z,0.00
2018-11-28T00:20:03.100Z,0.00
2018-11-28T00:21:03.071Z,0.00
2018-11-28T00:22:03.044Z,0.00
2018-11-28T00:23:03.024Z,0.00
2018-11-28T00:24:02.984Z,0.00
2018-11-28T00:25:02.955Z,0.00
2018-11-28T00:26:02.932Z,0.00
2018-11-28T00:27:02.902Z,0.00
2018-11-28T00:28:02.874Z,0.00
2018-11-28T00:29:02.846Z,0.00
2018-11-28T00:30:02.815Z,0.00
2018-11-28T00:31:02.783Z,0.00
2018-11-28T00:32:02.754Z,0.00
2018-11-28T00:33:02.729Z,0.00
2018-11-28T00:34:02.696Z,0.00
2018-11-28T00:35:02.668Z,0.00
2018-11-28T00:36:02.638Z,0.00
2018-11-28T00:37:02.610Z,0.00
2018-11-28T00:38:02.579Z,0.00
2018-11-28T00:39:02.551Z,0.00
2018-11-28T00:40:02.524Z,0.00
2018-11-28T00:41:02.500Z,0.00
2018-11-28T00:42:02.465Z,0.00
2018-11-28T00:43:02.436Z,0.00
2018-11-28T00:44:02.407Z,0.00
2018-11-28T00:45:02.378Z,0.00
2018-11-28T00:46:02.354Z,0.00
2018-11-28T00:47:02.322Z,0.00
2018-11-28T00:48:02.294Z,0.00
2018-11-28T00:49:02.265Z,0.00
2018-11-28T00:50:02.243Z,0.00
2018-11-28T00:51:02.214Z,0.00
2018-11-28T00:52:02.177Z,0.00
2018-11-28T00:53:02.150Z,0.00
2018-11-28T00:54:02.144Z,0.00
2018-11-28T00:55:02.093Z,0.00
2018-11-28T00:56:02.073Z,0.00
2018-11-28T00:57:02.035Z,0.00
2018-11-28T00:58:02.004Z,0.00
2018-11-28T00:59:01.976Z,0.00
2018-11-28T01:00:01.949Z,0.00
2018-11-28T01:01:01.921Z,0.00
2018-11-28T01:02:01.896Z,0.00
2018-11-28T01:03:01.860Z,0.00
2018-11-28T01:04:01.841Z,0.00
2018-11-28T01:05:01.813Z,0.00
2018-11-28T01:06:01.783Z,0.00
2018-11-28T01:07:01.744Z,0.00
2018-11-28T01:08:01.723Z,0.00
2018-11-28T01:09:01.736Z,0.00
2018-11-28T01:10:01.668Z,0.00
2018-11-28T01:11:01.629Z,0.00
2018-11-28T01:12:01.600Z,0.00
2018-11-28T01:13:01.571Z,0.00
2018-11-28T01:14:01.541Z,0.00
2018-11-28T01:15:01.513Z,0.00
2018-11-28T01:16:01.502Z,0.00
2018-11-28T01:17:01.456Z,0.00
2018-11-28T01:18:01.426Z,0.00
2018-11-28T01:19:01.404Z,0.00
2018-11-28T01:20:01.375Z,0.00
2018-11-28T01:21:01.360Z,0.00
2018-11-28T01:22:01.311Z,0.00
2018-11-28T01:23:01.283Z,0.00
2018-11-28T01:24:01.253Z,0.00
2018-11-28T01:25:01.224Z,0.00
2018-11-28T01:26:01.194Z,0.00
2018-11-28T01:27:01.166Z,0.00
2018-11-28T01:28:01.143Z,0.00
2018-11-28T01:29:01.117Z,0.00
2018-11-28T01:30:01.080Z,0.00
2018-11-28T01:31:01.049Z,0.00
2018-11-28T01:32:01.021Z,0.00
2018-11-28T01:33:00.992Z,0.00
2018-11-28T01:34:00.965Z,0.00
2018-11-28T01:35:00.945Z,0.00
2018-11-28T01:36:00.906Z,0.00
2018-11-28T01:37:00.877Z,0.00
2018-11-28T01:38:00.849Z,0.00
2018-11-28T01:39:00.828Z,0.00
2018-11-28T01:40:00.792Z,0.00
2018-11-28T01:41:00.760Z,0.00
2018-11-28T01:42:00.733Z,0.00
2018-11-28T01:43:00.702Z,0.00
2018-11-28T01:44:00.678Z,0.00
2018-11-28T01:45:00.645Z,0.00
2018-11-28T01:46:00.618Z,0.00
2018-11-28T01:47:00.586Z,0.00
2018-11-28T01:48:00.564Z,0.00
2018-11-28T01:49:00.529Z,0.00
2018-11-28T01:50:01.595Z,0.00
2018-11-28T01:51:00.469Z,0.00
2018-11-28T01:52:00.444Z,0.00
2018-11-28T01:53:00.413Z,0.00
2018-11-28T01:54:00.381Z,0.00
2018-11-28T01:55:00.354Z,0.00
2018-11-28T01:56:00.324Z,0.00
2018-11-28T01:57:00.305Z,0.00
2018-11-28T01:58:00.268Z,0.00
2018-11-28T01:59:00.242Z,0.00
2018-11-28T02:00:00.209Z,0.00
2018-11-28T02:01:00.181Z,0.00
2018-11-28T02:02:00.158Z,0.00
2018-11-28T02:03:00.124Z,0.00
2018-11-28T02:04:00.091Z,0.00
2018-11-28T02:05:00.063Z,0.00
2018-11-28T02:06:00.033Z,0.00
2018-11-28T02:07:00.004Z,0.00
2018-11-28T02:07:59.976Z,0.00
2018-11-28T02:08:59.948Z,0.00
2018-11-28T02:09:59.924Z,0.00
2018-11-28T02:10:59.898Z,0.00
2018-11-28T02:11:59.858Z,0.00
2018-11-28T02:12:59.829Z,0.00
2018-11-28T02:13:59.800Z,0.00
2018-11-28T02:14:59.771Z,0.00
2018-11-28T02:15:59.742Z,0.00
2018-11-28T02:16:59.723Z,0.00
2018-11-28T02:17:59.683Z,0.00
2018-11-28T02:18:59.654Z,0.00
2018-11-28T02:19:59.627Z,0.00
2018-11-28T02:20:59.599Z,0.00
2018-11-28T02:21:59.579Z,0.00
2018-11-28T02:22:59.541Z,0.00
2018-11-28T02:23:59.510Z,0.00
2018-11-28T02:24:59.484Z,0.00
2018-11-28T02:25:59.456Z,0.00
2018-11-28T02:26:59.424Z,0.00
2018-11-28T02:27:59.394Z,0.00
2018-11-28T02:28:59.368Z,0.00
2018-11-28T02:29:59.350Z,0.00
2018-11-28T02:30:59.307Z,0.00
2018-11-28T02:31:59.277Z,0.00
2018-11-28T02:32:59.297Z,0.00
2018-11-28T02:33:59.220Z,0.00
2018-11-28T02:34:59.194Z,0.00
2018-11-28T02:35:59.159Z,0.00
2018-11-28T02:36:59.131Z,0.00
2018-11-28T02:37:59.108Z,0.00
2018-11-28T02:38:59.074Z,0.00
2018-11-28T02:39:59.048Z,0.00
2018-11-28T02:40:59.016Z,0.00
2018-11-28T02:41:58.987Z,0.00
2018-11-28T02:42:58.960Z,0.00
2018-11-28T02:43:58.936Z,0.00
2018-11-28T02:44:58.898Z,0.00
2018-11-28T02:45:58.870Z,0.00
2018-11-28T02:46:58.848Z,0.00
2018-11-28T02:47:58.812Z,0.00
2018-11-28T02:48:58.783Z,0.00
2018-11-28T02:49:58.759Z,0.00
2018-11-28T02:50:58.726Z,0.00
2018-11-28T02:51:58.705Z,0.00
2018-11-28T02:52:58.667Z,0.00
2018-11-28T02:53:58.648Z,0.00
2018-11-28T02:54:58.608Z,0.00
2018-11-28T02:55:58.582Z,0.00
2018-11-28T02:56:58.577Z,0.00
2018-11-28T02:57:58.520Z,0.00
2018-11-28T02:58:58.491Z,0.00
2018-11-28T02:59:58.462Z,0.00
2018-11-28T03:00:58.434Z,0.00
2018-11-28T03:01:58.405Z,0.00
2018-11-28T03:02:58.375Z,0.00
2018-11-28T03:03:58.348Z,0.00
2018-11-28T03:04:58.322Z,0.00
2018-11-28T03:05:58.289Z,0.00
2018-11-28T03:06:58.259Z,0.00
2018-11-28T03:07:58.232Z,0.00
2018-11-28T03:08:58.202Z,0.00
2018-11-28T03:09:58.180Z,0.00
2018-11-28T03:10:58.141Z,0.00
2018-11-28T03:11:58.113Z,0.00
2018-11-28T03:12:58.085Z,0.00
2018-11-28T03:13:58.056Z,0.00
2018-11-28T03:14:58.028Z,0.00
2018-11-28T03:15:57.997Z,0.00
2018-11-28T03:16:57.968Z,0.00
2018-11-28T03:17:57.939Z,0.00
2018-11-28T03:18:57.907Z,0.00
2018-11-28T03:19:57.879Z,0.00
2018-11-28T03:20:57.852Z,0.00
2018-11-28T03:21:57.820Z,0.00
2018-11-28T03:22:57.791Z,0.00
2018-11-28T03:23:57.764Z,0.00
2018-11-28T03:24:57.736Z,0.00
2018-11-28T03:25:57.705Z,0.00
2018-11-28T03:26:57.675Z,0.00
2018-11-28T03:27:57.649Z,0.00
2018-11-28T03:28:57.626Z,0.00
2018-11-28T03:29:57.646Z,0.00
2018-11-28T03:30:57.560Z,0.00
2018-11-28T03:31:57.532Z,0.00
2018-11-28T03:32:57.503Z,0.00
2018-11-28T03:33:57.472Z,0.00
2018-11-28T03:34:57.445Z,0.00
2018-11-28T03:35:57.417Z,0.00
2018-11-28T03:36:57.393Z,0.00
2018-11-28T03:37:57.356Z,0.00
2018-11-28T03:38:57.329Z,0.00
2018-11-28T03:39:57.301Z,0.00
2018-11-28T03:40:57.274Z,0.00
2018-11-28T03:41:57.242Z,0.00
2018-11-28T03:42:57.212Z,0.00
2018-11-28T03:43:57.183Z,0.00
2018-11-28T03:44:57.156Z,0.00
2018-11-28T03:45:57.125Z,0.00
2018-11-28T03:46:57.095Z,0.00
2018-11-28T03:47:57.069Z,0.00
2018-11-28T03:48:57.058Z,0.00
2018-11-28T03:49:57.011Z,0.00
2018-11-28T03:50:56.978Z,0.00
2018-11-28T03:51:56.951Z,0.00
2018-11-28T03:52:56.922Z,0.00
2018-11-28T03:53:56.892Z,0.00
2018-11-28T03:54:56.864Z,0.00
2018-11-28T03:55:56.835Z,0.00
2018-11-28T03:56:56.857Z,0.00
2018-11-28T03:57:56.778Z,0.00
2018-11-28T03:58:56.756Z,0.00
2018-11-28T03:59:56.720Z,0.00
2018-11-28T04:00:56.690Z,0.00
2018-11-28T04:01:56.671Z,0.00
2018-11-28T04:02:56.632Z,0.00
2018-11-28T04:03:56.602Z,0.00
2018-11-28T04:04:56.577Z,0.00
2018-11-28T04:05:56.549Z,0.00
2018-11-28T04:06:56.520Z,0.00
2018-11-28T04:07:56.488Z,0.00
2018-11-28T04:08:56.459Z,0.00
2018-11-28T04:09:56.427Z,0.00
2018-11-28T04:10:56.401Z,0.00
2018-11-28T04:11:56.371Z,0.00
2018-11-28T04:12:56.351Z,0.00
2018-11-28T04:13:56.314Z,0.00
2018-11-28T04:14:56.284Z,0.00
2018-11-28T04:15:56.254Z,0.00
2018-11-28T04:16:56.228Z,0.00
2018-11-28T04:17:56.198Z,0.00
2018-11-28T04:18:56.172Z,0.00
2018-11-28T04:19:56.143Z,0.00
2018-11-28T04:20:56.112Z,0.00
2018-11-28T04:21:56.091Z,0.00
2018-11-28T04:22:56.055Z,0.00
2018-11-28T04:23:56.025Z,0.00
2018-11-28T04:24:55.999Z,0.00
2018-11-28T04:25:55.997Z,0.00
2018-11-28T04:26:55.942Z,0.00
2018-11-28T04:27:55.910Z,0.00
2018-11-28T04:28:55.881Z,0.00
2018-11-28T04:29:55.852Z,0.00
2018-11-28T04:30:55.823Z,0.00
2018-11-28T04:31:55.796Z,0.00
2018-11-28T04:32:55.770Z,0.00
2018-11-28T04:33:55.740Z,0.00
2018-11-28T04:34:55.709Z,0.00
2018-11-28T04:35:55.688Z,0.00
2018-11-28T04:36:55.652Z,0.00
2018-11-28T04:37:55.621Z,0.00
2018-11-28T04:38:55.595Z,0.00
2018-11-28T04:39:55.564Z,0.00
2018-11-28T04:40:55.538Z,0.00
2018-11-28T04:41:55.614Z,0.00
2018-11-28T04:42:55.478Z,0.00
2018-11-28T04:43:55.448Z,0.00
2018-11-28T04:44:55.472Z,0.00
2018-11-28T04:45:55.389Z,0.00
2018-11-28T04:46:55.362Z,0.00
2018-11-28T04:47:55.333Z,0.00
2018-11-28T04:48:55.304Z,0.00
2018-11-28T04:49:55.277Z,0.00
2018-11-28T04:50:55.246Z,0.00
2018-11-28T04:51:55.225Z,0.00
2018-11-28T04:52:55.191Z,0.00
2018-11-28T04:53:55.160Z,0.00
2018-11-28T04:54:55.130Z,0.00
2018-11-28T04:55:55.101Z,0.00
2018-11-28T04:56:55.072Z,0.00
2018-11-28T04:57:55.046Z,0.00
2018-11-28T04:58:55.016Z,0.00
2018-11-28T04:59:54.994Z,0.00
2018-11-28T05:00:54.963Z,0.00
2018-11-28T05:01:54.935Z,0.00
2018-11-28T05:02:54.908Z,0.00
2018-11-28T05:03:55.023Z,0.00
2018-11-28T05:04:54.844Z,0.00
2018-11-28T05:05:54.814Z,0.00
2018-11-28T05:06:54.794Z,0.00
2018-11-28T05:07:54.756Z,0.00
2018-11-28T05:08:54.733Z,0.00
2018-11-28T05:09:54.748Z,0.00
2018-11-28T05:10:54.670Z,0.00
2018-11-28T05:11:54.641Z,0.00
2018-11-28T05:12:54.612Z,0.00
2018-11-28T05:13:54.590Z,0.00
2018-11-28T05:14:54.552Z,0.00
2018-11-28T05:15:54.524Z,0.00
2018-11-28T05:16:54.498Z,0.00
2018-11-28T05:17:54.467Z,0.00
2018-11-28T05:18:54.438Z,0.00
2018-11-28T05:19:54.407Z,0.00
2018-11-28T05:20:54.382Z,0.00
2018-11-28T05:21:54.353Z,0.00
2018-11-28T05:22:54.325Z,0.00
2018-11-28T05:23:54.294Z,0.00
2018-11-28T05:24:54.269Z,0.00
2018-11-28T05:25:54.245Z,0.00
2018-11-28T05:26:54.207Z,0.00
2018-11-28T05:27:54.188Z,0.00
2018-11-28T05:28:54.149Z,0.00
2018-11-28T05:29:54.127Z,0.00
2018-11-28T05:30:54.090Z,0.00
2018-11-28T05:31:54.063Z,0.00
2018-11-28T05:32:54.055Z,0.00
2018-11-28T05:33:54.013Z,0.00
2018-11-28T05:34:53.995Z,0.00
2018-11-28T05:35:53.946Z,0.00
2018-11-28T05:36:53.917Z,0.00
2018-11-28T05:37:53.890Z,0.00
2018-11-28T05:38:53.860Z,0.00
2018-11-28T05:39:53.836Z,0.00
2018-11-28T05:40:53.806Z,0.00
2018-11-28T05:41:53.775Z,0.00
2018-11-28T05:42:53.745Z,0.00
2018-11-28T05:43:53.717Z,0.00
2018-11-28T05:44:53.687Z,0.00
2018-11-28T05:45:53.659Z,0.00
2018-11-28T05:46:53.630Z,0.00
2018-11-28T05:47:53.609Z,0.00
2018-11-28T05:48:53.573Z,0.00
2018-11-28T05:49:53.541Z,0.00
2018-11-28T05:50:53.513Z,0.00
2018-11-28T05:51:53.489Z,0.00
2018-11-28T05:52:53.462Z,0.00
2018-11-28T05:53:53.432Z,0.00
2018-11-28T05:54:53.400Z,0.00
2018-11-28T05:55:53.371Z,0.00
2018-11-28T05:56:53.344Z,0.00
2018-11-28T05:57:53.312Z,0.00
2018-11-28T05:58:53.285Z,0.00
2018-11-28T05:59:53.255Z,0.00
2018-11-28T06:00:53.230Z,0.00
2018-11-28T06:01:53.198Z,0.00
2018-11-28T06:02:53.171Z,0.00
2018-11-28T06:03:53.144Z,0.00
2018-11-28T06:04:53.113Z,0.00
2018-11-28T06:05:53.083Z,0.00
2018-11-28T06:06:53.057Z,0.00
2018-11-28T06:07:53.026Z,0.00
2018-11-28T06:08:52.997Z,0.00
2018-11-28T06:09:52.968Z,0.00
2018-11-28T06:10:52.939Z,0.00
2018-11-28T06:11:52.915Z,0.00
2018-11-28T06:12:52.891Z,0.00
2018-11-28T06:13:52.855Z,0.00
2018-11-28T06:14:52.825Z,0.00
2018-11-28T06:15:52.821Z,0.00
2018-11-28T06:16:52.775Z,0.00
2018-11-28T06:17:52.743Z,0.00
2018-11-28T06:18:52.713Z,0.00
2018-11-28T06:19:52.682Z,0.00
2018-11-28T06:20:52.653Z,0.00
2018-11-28T06:21:52.623Z,0.00
2018-11-28T06:22:52.595Z,0.00
2018-11-28T06:23:52.568Z,0.00
2018-11-28T06:24:52.540Z,0.00
2018-11-28T06:25:52.512Z,0.00
2018-11-28T06:26:52.481Z,0.00
2018-11-28T06:27:52.455Z,0.00
2018-11-28T06:28:52.424Z,0.00
2018-11-28T06:29:52.394Z,0.00
2018-11-28T06:30:52.381Z,0.00
2018-11-28T06:31:52.338Z,0.00
2018-11-28T06:32:52.310Z,0.00
2018-11-28T06:33:52.289Z,0.00
2018-11-28T06:34:52.267Z,0.00
2018-11-28T06:35:52.223Z,0.00
2018-11-28T06:36:52.197Z,0.00
2018-11-28T06:37:52.168Z,0.00
2018-11-28T06:38:52.144Z,0.00
2018-11-28T06:39:52.109Z,0.00
2018-11-28T06:40:52.087Z,0.00
2018-11-28T06:41:52.058Z,0.00
2018-11-28T06:42:52.022Z,0.00
2018-11-28T06:43:51.995Z,0.00
2018-11-28T06:44:51.974Z,0.00
2018-11-28T06:45:51.936Z,0.00
2018-11-28T06:46:51.909Z,0.00
2018-11-28T06:47:51.889Z,0.00
2018-11-28T06:48:51.854Z,0.00
2018-11-28T06:49:51.829Z,0.00
2018-11-28T06:50:51.792Z,0.00
2018-11-28T06:51:51.765Z,0.00
2018-11-28T06:52:51.740Z,0.00
2018-11-28T06:53:51.709Z,0.00
2018-11-28T06:54:51.687Z,5.63
2018-11-28T06:55:51.660Z,5.63
2018-11-28T06:56:51.632Z,5.63
2018-11-28T06:57:51.593Z,5.63
2018-11-28T06:58:51.564Z,5.63
2018-11-28T06:59:51.536Z,5.63
2018-11-28T07:00:51.508Z,5.63
2018-11-28T07:01:51.488Z,5.63
2018-11-28T07:02:51.452Z,11.25
2018-11-28T07:03:51.433Z,11.25
2018-11-28T07:04:51.392Z,11.25
2018-11-28T07:05:51.373Z,11.25
2018-11-28T07:06:51.345Z,11.25
2018-11-28T07:07:51.318Z,16.88
2018-11-28T07:08:51.289Z,16.88
2018-11-28T07:09:51.255Z,11.25
2018-11-28T07:10:51.222Z,11.25
2018-11-28T07:11:51.195Z,11.25
2018-11-28T07:12:51.168Z,11.25
2018-11-28T07:13:51.141Z,16.88
2018-11-28T07:14:51.112Z,16.88
2018-11-28T07:15:51.080Z,16.88
2018-11-28T07:16:51.054Z,16.88
2018-11-28T07:17:51.024Z,16.88
2018-11-28T07:18:50.994Z,16.88
2018-11-28T07:19:50.965Z,16.88
2018-11-28T07:20:51.002Z,16.88
2018-11-28T07:21:50.908Z,16.88
2018-11-28T07:22:50.892Z,16.88
2018-11-28T07:23:50.854Z,22.50
2018-11-28T07:24:50.824Z,22.50
2018-11-28T07:25:50.794Z,22.50
2018-11-28T07:26:50.768Z,28.13
2018-11-28T07:27:50.738Z,28.13
2018-11-28T07:28:50.711Z,28.13
2018-11-28T07:29:50.681Z,28.13
2018-11-28T07:30:50.791Z,28.13
2018-11-28T07:31:50.624Z,33.75
2018-11-28T07:32:50.596Z,33.75
2018-11-28T07:33:50.568Z,33.75
2018-11-28T07:34:50.541Z,33.75
2018-11-28T07:35:50.512Z,33.75
2018-11-28T07:36:50.483Z,39.38
2018-11-28T07:37:50.454Z,39.38
2018-11-28T07:38:50.436Z,45.00
2018-11-28T07:39:50.398Z,45.00
2018-11-28T07:40:50.371Z,45.00
2018-11-28T07:41:50.344Z,50.63
2018-11-28T07:42:50.317Z,50.63
2018-11-28T07:43:50.285Z,50.63
2018-11-28T07:44:50.260Z,50.63
2018-11-28T07:45:50.232Z,50.63
2018-11-28T07:46:50.207Z,50.63
2018-11-28T07:47:50.189Z,56.25
2018-11-28T07:48:50.146Z,56.25
2018-11-28T07:49:50.117Z,61.88
2018-11-28T07:50:50.091Z,61.88
2018-11-28T07:51:50.067Z,67.50
2018-11-28T07:52:50.034Z,67.50
2018-11-28T07:53:50.005Z,67.50
2018-11-28T07:54:49.978Z,67.50
2018-11-28T07:55:49.947Z,67.50
2018-11-28T07:56:49.922Z,67.50
2018-11-28T07:57:49.903Z,67.50
2018-11-28T07:58:49.866Z,67.50
2018-11-28T07:59:49.838Z,67.50
2018-11-28T08:00:49.824Z,67.50
2018-11-28T08:01:49.787Z,73.13
2018-11-28T08:02:49.754Z,73.13
2018-11-28T08:03:49.822Z,73.13
2018-11-28T08:04:49.696Z,73.13
2018-11-28T08:05:49.671Z,78.75
2018-11-28T08:06:49.640Z,78.75
2018-11-28T08:07:49.613Z,78.75
2018-11-28T08:08:49.597Z,78.75
2018-11-28T08:09:49.558Z,84.38
2018-11-28T08:10:49.541Z,84.38
2018-11-28T08:11:49.505Z,84.38
2018-11-28T08:12:49.481Z,84.38
2018-11-28T08:13:49.452Z,84.38
2018-11-28T08:14:49.418Z,84.38
2018-11-28T08:15:49.453Z,90.00
2018-11-28T08:16:49.363Z,90.00
2018-11-28T08:17:49.345Z,90.00
2018-11-28T08:18:49.308Z,95.63
2018-11-28T08:19:49.278Z,95.63
2018-11-28T08:20:49.251Z,101.25
2018-11-28T08:21:49.230Z,106.88
2018-11-28T08:22:49.195Z,106.88
2018-11-28T08:23:49.169Z,106.88
2018-11-28T08:24:49.148Z,112.50
2018-11-28T08:25:49.161Z,112.50
2018-11-28T08:26:49.087Z,112.50
2018-11-28T08:27:49.057Z,118.13
2018-11-28T08:28:49.031Z,118.13
2018-11-28T08:29:49.001Z,118.13
2018-11-28T08:30:48.983Z,118.13
2018-11-28T08:31:48.950Z,118.13
2018-11-28T08:32:48.922Z,123.75
2018-11-28T08:33:48.893Z,123.75
2018-11-28T08:34:48.872Z,123.75
2018-11-28T08:35:48.837Z,123.75
2018-11-28T08:36:48.810Z,123.75
2018-11-28T08:37:48.813Z,129.38
2018-11-28T08:38:48.762Z,129.38
2018-11-28T08:39:48.727Z,129.38
2018-11-28T08:40:48.699Z,135.00
2018-11-28T08:41:48.673Z,135.00
2018-11-28T08:42:48.645Z,135.00
2018-11-28T08:43:48.617Z,140.63
2018-11-28T08:44:48.591Z,140.63
2018-11-28T08:45:48.563Z,140.63
2018-11-28T08:46:48.535Z,140.63
2018-11-28T08:47:48.509Z,140.63
2018-11-28T08:48:48.501Z,140.63
2018-11-28T08:49:48.459Z,140.63
2018-11-28T08:50:48.444Z,140.63
2018-11-28T08:51:48.410Z,140.63
2018-11-28T08:52:48.372Z,146.25
2018-11-28T08:53:48.345Z,146.25
2018-11-28T08:54:48.316Z,146.25
2018-11-28T08:55:48.290Z,151.88
2018-11-28T08:56:48.264Z,151.88
2018-11-28T08:57:48.234Z,157.50
2018-11-28T08:58:48.209Z,157.50
2018-11-28T08:59:48.180Z,157.50
2018-11-28T09:00:48.154Z,163.13
2018-11-28T09:01:48.128Z,168.75
2018-11-28T09:02:48.099Z,168.75
2018-11-28T09:03:48.074Z,168.75
2018-11-28T09:04:48.047Z,168.75
2018-11-28T09:05:48.023Z,174.38
2018-11-28T09:06:47.993Z,174.38
2018-11-28T09:07:47.966Z,180.00
2018-11-28T09:08:47.937Z,191.25
2018-11-28T09:09:47.914Z,191.25
2018-11-28T09:10:47.884Z,191.25
2018-11-28T09:11:47.867Z,196.88
2018-11-28T09:12:47.833Z,196.88
2018-11-28T09:13:47.802Z,202.50
2018-11-28T09:14:47.778Z,208.13
2018-11-28T09:15:47.750Z,213.75
2018-11-28T09:16:47.725Z,219.38
2018-11-28T09:17:47.697Z,230.63
2018-11-28T09:18:47.670Z,230.63
2018-11-28T09:19:47.653Z,241.88
2018-11-28T09:20:47.616Z,247.50
2018-11-28T09:21:47.591Z,258.75
2018-11-28T09:22:47.571Z,258.75
2018-11-28T09:23:47.548Z,264.38
2018-11-28T09:24:47.511Z,270.00
2018-11-28T09:25:47.485Z,264.38
2018-11-28T09:26:47.458Z,264.38
2018-11-28T09:27:47.441Z,270.00
2018-11-28T09:28:47.406Z,270.00
2018-11-28T09:29:47.375Z,270.00
2018-11-28T09:30:47.355Z,270.00
2018-11-28T09:31:47.325Z,270.00
2018-11-28T09:32:47.300Z,270.00
2018-11-28T09:33:47.272Z,264.38
2018-11-28T09:34:47.262Z,264.38
2018-11-28T09:35:47.219Z,264.38
2018-11-28T09:36:47.200Z,264.38
2018-11-28T09:37:47.181Z,264.38
2018-11-28T09:38:47.152Z,270.00
2018-11-28T09:39:47.115Z,275.63
2018-11-28T09:40:47.102Z,281.25
2018-11-28T09:41:47.065Z,281.25
2018-11-28T09:42:47.037Z,281.25
2018-11-28T09:43:47.009Z,281.25
2018-11-28T09:44:46.984Z,281.25
2018-11-28T09:45:46.961Z,281.25
2018-11-28T09:46:46.932Z,275.63
2018-11-28T09:47:46.909Z,275.63
2018-11-28T09:48:46.881Z,275.63
2018-11-28T09:49:46.852Z,281.25
2018-11-28T09:50:46.829Z,275.63
2018-11-28T09:51:46.801Z,281.25
2018-11-28T09:52:46.782Z,286.88
2018-11-28T09:53:46.758Z,286.88
2018-11-28T09:54:46.724Z,292.50
2018-11-28T09:55:46.700Z,292.50
2018-11-28T09:56:46.673Z,292.50
2018-11-28T09:57:46.647Z,292.50
2018-11-28T09:58:46.626Z,292.50
2018-11-28T09:59:46.614Z,298.13
2018-11-28T10:00:46.582Z,298.13
2018-11-28T10:01:46.545Z,303.75
2018-11-28T10:02:46.519Z,303.75
2018-11-28T10:03:46.492Z,303.75
2018-11-28T10:04:46.477Z,303.75
2018-11-28T10:05:47.278Z,303.75
2018-11-28T10:06:46.416Z,309.38
2018-11-28T10:07:46.395Z,309.38
2018-11-28T10:08:46.366Z,309.38
2018-11-28T10:09:46.346Z,309.38
2018-11-28T10:10:46.324Z,309.38
2018-11-28T10:11:46.289Z,309.38
2018-11-28T10:12:46.266Z,315.00
2018-11-28T10:13:46.239Z,315.00
2018-11-28T10:14:46.213Z,320.63
2018-11-28T10:15:46.192Z,326.25
2018-11-28T10:16:47.067Z,326.25
2018-11-28T10:17:46.213Z,331.88
2018-11-28T10:18:46.114Z,331.88
2018-11-28T10:19:46.087Z,331.88
2018-11-28T10:20:46.069Z,331.88
2018-11-28T10:21:46.036Z,331.88
2018-11-28T10:22:46.020Z,331.88
2018-11-28T10:23:45.990Z,331.88
2018-11-28T10:24:45.984Z,331.88
2018-11-28T10:25:45.935Z,337.50
2018-11-28T10:26:45.916Z,348.75
2018-11-28T10:27:45.889Z,360.00
2018-11-28T10:28:45.863Z,371.25
2018-11-28T10:29:45.847Z,376.88
2018-11-28T10:30:45.811Z,388.13
2018-11-28T10:31:45.789Z,376.88
2018-11-28T10:32:45.771Z,382.50
2018-11-28T10:33:45.736Z,376.88
2018-11-28T10:34:45.712Z,376.88
2018-11-28T10:35:46.635Z,371.25
2018-11-28T10:36:45.665Z,365.63
2018-11-28T10:37:45.639Z,354.38
2018-11-28T10:38:45.613Z,343.13
2018-11-28T10:39:45.587Z,326.25
2018-11-28T10:40:45.567Z,315.00
2018-11-28T10:41:45.589Z,303.75
2018-11-28T10:42:45.516Z,292.50
2018-11-28T10:43:45.490Z,281.25
2018-11-28T10:44:45.516Z,281.25
2018-11-28T10:45:45.444Z,281.25
2018-11-28T10:46:45.417Z,281.25
2018-11-28T10:47:45.393Z,286.88
2018-11-28T10:48:45.370Z,286.88
2018-11-28T10:49:45.347Z,286.88
2018-11-28T10:50:45.329Z,286.88
2018-11-28T10:51:50.212Z,292.50
2018-11-28T10:52:45.278Z,292.50
2018-11-28T10:53:45.382Z,292.50
2018-11-28T10:54:45.221Z,292.50
2018-11-28T10:55:45.205Z,292.50
2018-11-28T10:56:45.185Z,292.50
2018-11-28T10:57:45.157Z,286.88
2018-11-28T10:58:45.128Z,286.88
2018-11-28T10:59:45.101Z,281.25
2018-11-28T11:00:45.077Z,281.25
2018-11-28T11:01:45.048Z,281.25
2018-11-28T11:02:45.023Z,281.25
2018-11-28T11:03:44.999Z,281.25
2018-11-28T11:04:45.132Z,286.88
2018-11-28T11:05:44.953Z,292.50
2018-11-28T11:06:44.924Z,303.75
2018-11-28T11:07:44.900Z,303.75
2018-11-28T11:08:44.876Z,309.38
2018-11-28T11:09:44.894Z,320.63
2018-11-28T11:10:44.834Z,320.63
2018-11-28T11:11:44.802Z,326.25
2018-11-28T11:12:44.778Z,320.63
2018-11-28T11:13:44.752Z,320.63
2018-11-28T11:14:44.732Z,315.00
2018-11-28T11:15:44.711Z,315.00
2018-11-28T11:16:44.684Z,309.38
2018-11-28T11:17:44.654Z,309.38
2018-11-28T11:18:44.632Z,309.38
2018-11-28T11:19:44.605Z,315.00
2018-11-28T11:20:44.583Z,320.63
2018-11-28T11:21:44.563Z,326.25
2018-11-28T11:22:44.533Z,331.88
2018-11-28T11:23:44.507Z,331.88
2018-11-28T11:24:44.484Z,337.50
2018-11-28T11:25:44.466Z,337.50
2018-11-28T11:26:44.431Z,343.13
2018-11-28T11:27:44.409Z,343.13
2018-11-28T11:28:44.390Z,348.75
2018-11-28T11:29:44.360Z,348.75
2018-11-28T11:30:44.344Z,354.38
2018-11-28T11:31:44.315Z,348.75
2018-11-28T11:32:44.287Z,348.75
2018-11-28T11:33:44.266Z,343.13
2018-11-28T11:34:44.238Z,343.13
2018-11-28T11:35:44.213Z,343.13
2018-11-28T11:36:44.191Z,343.13
2018-11-28T11:37:44.166Z,343.13
2018-11-28T11:38:44.154Z,343.13
2018-11-28T11:39:44.193Z,343.13
2018-11-28T11:40:44.104Z,343.13
2018-11-28T11:41:44.067Z,343.13
2018-11-28T11:42:44.044Z,343.13
2018-11-28T11:43:44.022Z,343.13
2018-11-28T11:44:43.995Z,343.13
2018-11-28T11:45:43.987Z,343.13
2018-11-28T11:46:43.948Z,337.50
2018-11-28T11:47:43.926Z,337.50
2018-11-28T11:48:43.902Z,337.50
2018-11-28T11:49:43.884Z,331.88
2018-11-28T11:50:43.858Z,337.50
2018-11-28T11:51:43.827Z,331.88
2018-11-28T11:52:43.816Z,331.88
2018-11-28T11:53:43.779Z,331.88
2018-11-28T11:54:43.755Z,326.25
2018-11-28T11:55:43.757Z,320.63
2018-11-28T11:56:43.716Z,326.25
2018-11-28T11:57:43.683Z,320.63
2018-11-28T11:58:43.663Z,315.00
2018-11-28T11:59:43.640Z,315.00
2018-11-28T12:00:43.613Z,309.38
2018-11-28T12:01:43.603Z,303.75
2018-11-28T12:02:43.573Z,298.13
2018-11-28T12:03:43.553Z,292.50
2018-11-28T12:04:43.516Z,292.50
2018-11-28T12:05:43.499Z,292.50
2018-11-28T12:06:43.467Z,292.50
2018-11-28T12:07:43.447Z,292.50
2018-11-28T12:08:43.422Z,292.50
2018-11-28T12:09:43.405Z,286.88
2018-11-28T12:10:43.379Z,281.25
2018-11-28T12:11:43.348Z,275.63
2018-11-28T12:12:43.332Z,270.00
2018-11-28T12:13:43.300Z,264.38
2018-11-28T12:14:43.276Z,264.38
2018-11-28T12:15:43.303Z,258.75
2018-11-28T12:16:43.228Z,258.75
2018-11-28T12:17:43.204Z,258.75
2018-11-28T12:18:43.183Z,258.75
2018-11-28T12:19:43.157Z,258.75
2018-11-28T12:20:43.135Z,258.75
2018-11-28T12:21:43.627Z,258.75
2018-11-28T12:22:43.093Z,258.75
2018-11-28T12:23:43.060Z,258.75
2018-11-28T12:24:43.057Z,258.75
2018-11-28T12:25:43.015Z,258.75
2018-11-28T12:26:42.989Z,258.75
2018-11-28T12:27:42.976Z,253.13
2018-11-28T12:28:42.942Z,247.50
2018-11-28T12:29:43.462Z,241.88
2018-11-28T12:30:42.896Z,241.88
2018-11-28T12:31:42.869Z,241.88
2018-11-28T12:32:42.846Z,236.25
2018-11-28T12:33:42.828Z,230.63
2018-11-28T12:34:42.801Z,225.00
2018-11-28T12:35:42.782Z,225.00
2018-11-28T12:36:42.831Z,225.00
2018-11-28T12:37:42.725Z,219.38
2018-11-28T12:38:42.716Z,213.75
2018-11-28T12:39:42.684Z,213.75
2018-11-28T12:40:42.660Z,208.13
2018-11-28T12:41:42.631Z,202.50
2018-11-28T12:42:42.609Z,202.50
2018-11-28T12:43:42.583Z,196.88
2018-11-28T12:44:42.558Z,196.88
2018-11-28T12:45:42.546Z,196.88
2018-11-28T12:46:42.517Z,185.63
2018-11-28T12:47:42.491Z,180.00
2018-11-28T12:48:42.476Z,180.00
2018-11-28T12:49:42.440Z,180.00
2018-11-28T12:50:42.422Z,180.00
2018-11-28T12:51:42.393Z,180.00
2018-11-28T12:52:42.383Z,180.00
2018-11-28T12:53:42.345Z,174.38
2018-11-28T12:54:42.322Z,174.38
2018-11-28T12:55:42.298Z,168.75
2018-11-28T12:56:42.283Z,168.75